METAR
LICR 032150Z 02010KT CAVOK 29/21 Q1008
TAF